AIB9E SAAR-SAZM
Flight info
| Callsign | AIB9E |
|---|---|
| Flight time | 0h 55m |
| Altitude | 35000 |
| Route | VASAL2G VASAL DCT MULTA DCT GBE UW29 VOTRA VOTRA2U |
| Aircraft | A320/M-SDE3FGHIRWY/LB1 |
Departure
| Time | 2026-05-07 15:50 |
|---|---|
| Airport | Rosario Islas Malvinas International Airport (SAAR) |
Arrival
| Time | 2026-05-07 16:46 |
|---|---|
| Airport | Ástor Piazzola International Airport (SAZM) |
| Time | Latitude | Longitude | Altitude | Speed | Heading |
|---|---|---|---|---|---|
| 2026-05-07 15:40 | -32.91689 | -60.78122 | 92 ft | 0 kts | 110° |
| 2026-05-07 15:45 | -32.91684 | -60.78138 | 92 ft | 2 kts | 110° |
| 2026-05-07 15:45 | -32.91676 | -60.78157 | 91 ft | 3 kts | 141° |
| 2026-05-07 15:46 | -32.91652 | -60.78167 | 90 ft | 0 kts | 195° |
| 2026-05-07 15:47 | -32.91685 | -60.78193 | 91 ft | 11 kts | 220° |
| 2026-05-07 15:47 | -32.91746 | -60.78257 | 92 ft | 12 kts | 223° |
| 2026-05-07 15:48 | -32.91765 | -60.78354 | 94 ft | 13 kts | 259° |
| 2026-05-07 15:48 | -32.91788 | -60.78496 | 94 ft | 21 kts | 258° |
| 2026-05-07 15:48 | -32.91748 | -60.78658 | 93 ft | 22 kts | 311° |
| 2026-05-07 15:48 | -32.91617 | -60.78748 | 91 ft | 22 kts | 356° |
| 2026-05-07 15:49 | -32.91583 | -60.78744 | 93 ft | 0 kts | 12° |
| 2026-05-07 15:49 | -32.91488 | -60.78721 | 92 ft | 47 kts | 11° |
| 2026-05-07 15:50 | -32.90929 | -60.78599 | 93 ft | 114 kts | 11° |
| 2026-05-07 15:50 | -32.89957 | -60.78385 | 93 ft | 164 kts | 12° |
| 2026-05-07 15:50 | -32.88786 | -60.78089 | 500 ft | 180 kts | 6° |
| 2026-05-07 15:50 | -32.87498 | -60.77813 | 1064 ft | 194 kts | 5° |
| 2026-05-07 15:51 | -32.86149 | -60.77372 | 1592 ft | 210 kts | 22° |
| 2026-05-07 15:51 | -32.84941 | -60.76336 | 2148 ft | 219 kts | 49° |
| 2026-05-07 15:51 | -32.84179 | -60.74794 | 2757 ft | 220 kts | 82° |
| 2026-05-07 15:51 | -32.84161 | -60.73026 | 3395 ft | 211 kts | 114° |
| 2026-05-07 15:52 | -32.84836 | -60.71497 | 3875 ft | 215 kts | 135° |
| 2026-05-07 15:52 | -32.85843 | -60.70092 | 4436 ft | 230 kts | 139° |
| 2026-05-07 15:52 | -32.85987 | -60.69906 | 4549 ft | 231 kts | 140° |
| 2026-05-07 15:52 | -32.86487 | -60.69259 | 4923 ft | 234 kts | 139° |
| 2026-05-07 15:53 | -32.87599 | -60.67806 | 5673 ft | 241 kts | 137° |
| 2026-05-07 15:53 | -32.88723 | -60.66283 | 6425 ft | 248 kts | 137° |
| 2026-05-07 15:53 | -32.90029 | -60.64943 | 7123 ft | 249 kts | 153° |
| 2026-05-07 15:53 | -32.91635 | -60.64032 | 7564 ft | 265 kts | 167° |
| 2026-05-07 15:54 | -32.93461 | -60.63387 | 8084 ft | 282 kts | 168° |
| 2026-05-07 15:54 | -32.95350 | -60.62697 | 8826 ft | 290 kts | 167° |
| 2026-05-07 15:54 | -32.97292 | -60.61970 | 9614 ft | 296 kts | 167° |
| 2026-05-07 15:54 | -32.99306 | -60.61212 | 10160 ft | 311 kts | 167° |
| 2026-05-07 15:55 | -33.01461 | -60.60402 | 10453 ft | 334 kts | 167° |
| 2026-05-07 15:55 | -33.03716 | -60.59552 | 11039 ft | 344 kts | 168° |
| 2026-05-07 15:55 | -33.05996 | -60.58683 | 12013 ft | 337 kts | 168° |
| 2026-05-07 15:55 | -33.08166 | -60.57840 | 13531 ft | 317 kts | 171° |
| 2026-05-07 15:56 | -33.10216 | -60.57042 | 14783 ft | 300 kts | 171° |
| 2026-05-07 15:56 | -33.12208 | -60.56282 | 15485 ft | 302 kts | 171° |
| 2026-05-07 15:56 | -33.14230 | -60.55532 | 16049 ft | 308 kts | 171° |
| 2026-05-07 15:56 | -33.16300 | -60.54769 | 16598 ft | 315 kts | 170° |
| 2026-05-07 15:57 | -33.18396 | -60.53992 | 17146 ft | 322 kts | 169° |
| 2026-05-07 15:57 | -33.20559 | -60.53181 | 17690 ft | 329 kts | 169° |
| 2026-05-07 15:57 | -33.22756 | -60.52354 | 18232 ft | 336 kts | 169° |
| 2026-05-07 15:57 | -33.25011 | -60.51499 | 18767 ft | 341 kts | 168° |
| 2026-05-07 15:58 | -33.27288 | -60.50632 | 19282 ft | 346 kts | 168° |
| 2026-05-07 15:58 | -33.29599 | -60.49753 | 19788 ft | 351 kts | 168° |
| 2026-05-07 15:58 | -33.31941 | -60.48859 | 20308 ft | 355 kts | 166° |
| 2026-05-07 15:58 | -33.34260 | -60.47738 | 20801 ft | 363 kts | 156° |
| 2026-05-07 15:59 | -33.36500 | -60.46267 | 21293 ft | 370 kts | 151° |
| 2026-05-07 15:59 | -33.38742 | -60.44693 | 21793 ft | 374 kts | 150° |
| 2026-05-07 15:59 | -33.40987 | -60.43124 | 22273 ft | 379 kts | 150° |
| 2026-05-07 15:59 | -33.43284 | -60.41522 | 22768 ft | 384 kts | 150° |
| 2026-05-07 16:00 | -33.45607 | -60.39904 | 23232 ft | 389 kts | 150° |
| 2026-05-07 16:00 | -33.47966 | -60.38263 | 23669 ft | 393 kts | 150° |
| 2026-05-07 16:00 | -33.50325 | -60.36620 | 24093 ft | 396 kts | 149° |
| 2026-05-07 16:00 | -33.52718 | -60.34950 | 24527 ft | 399 kts | 149° |
| 2026-05-07 16:01 | -33.55124 | -60.33267 | 24964 ft | 401 kts | 149° |
| 2026-05-07 16:01 | -33.57547 | -60.31567 | 25383 ft | 404 kts | 149° |
| 2026-05-07 16:01 | -33.60004 | -60.29842 | 25813 ft | 407 kts | 148° |
| 2026-05-07 16:01 | -33.62455 | -60.28121 | 26235 ft | 410 kts | 148° |
| 2026-05-07 16:02 | -33.64896 | -60.26410 | 26650 ft | 412 kts | 148° |
| 2026-05-07 16:02 | -33.67388 | -60.24666 | 27070 ft | 414 kts | 148° |
| 2026-05-07 16:02 | -33.69903 | -60.22902 | 27473 ft | 417 kts | 148° |
| 2026-05-07 16:02 | -33.72416 | -60.21135 | 27877 ft | 420 kts | 150° |
| 2026-05-07 16:03 | -33.74970 | -60.19335 | 28278 ft | 423 kts | 147° |
| 2026-05-07 16:03 | -33.77562 | -60.17510 | 28645 ft | 426 kts | 147° |
| 2026-05-07 16:03 | -33.80050 | -60.15758 | 29026 ft | 429 kts | 147° |
| 2026-05-07 16:03 | -33.82646 | -60.13932 | 29391 ft | 432 kts | 147° |
| 2026-05-07 16:04 | -33.85238 | -60.12045 | 29777 ft | 433 kts | 144° |
| 2026-05-07 16:04 | -33.87755 | -60.10033 | 30098 ft | 435 kts | 141° |
| 2026-05-07 16:04 | -33.90204 | -60.07940 | 30381 ft | 438 kts | 140° |
| 2026-05-07 16:04 | -33.92660 | -60.05774 | 30632 ft | 442 kts | 139° |
| 2026-05-07 16:05 | -33.95155 | -60.03568 | 30922 ft | 445 kts | 140° |
| 2026-05-07 16:05 | -33.97641 | -60.01395 | 31209 ft | 448 kts | 140° |
| 2026-05-07 16:05 | -34.00190 | -59.99197 | 31490 ft | 452 kts | 140° |
| 2026-05-07 16:05 | -34.02780 | -59.96988 | 31735 ft | 456 kts | 141° |
| 2026-05-07 16:06 | -34.05433 | -59.94740 | 32032 ft | 459 kts | 141° |
| 2026-05-07 16:06 | -34.08069 | -59.92509 | 32322 ft | 462 kts | 141° |
| 2026-05-07 16:06 | -34.10705 | -59.90276 | 32602 ft | 465 kts | 141° |
| 2026-05-07 16:06 | -34.13361 | -59.88018 | 32843 ft | 469 kts | 141° |
| 2026-05-07 16:07 | -34.16006 | -59.85760 | 33126 ft | 471 kts | 141° |
| 2026-05-07 16:07 | -34.18739 | -59.83422 | 33402 ft | 474 kts | 141° |
| 2026-05-07 16:07 | -34.21433 | -59.81114 | 33671 ft | 477 kts | 141° |
| 2026-05-07 16:07 | -34.24144 | -59.78790 | 33862 ft | 480 kts | 141° |
| 2026-05-07 16:08 | -34.26873 | -59.76448 | 33989 ft | 486 kts | 141° |
| 2026-05-07 16:08 | -34.29615 | -59.74095 | 34094 ft | 491 kts | 141° |
| 2026-05-07 16:08 | -34.32539 | -59.71586 | 34227 ft | 496 kts | 141° |
| 2026-05-07 16:09 | -34.38221 | -59.66703 | 34430 ft | 506 kts | 141° |
| 2026-05-07 16:09 | -34.43043 | -59.62554 | 34659 ft | 513 kts | 141° |
| 2026-05-07 16:10 | -34.49878 | -59.56655 | 34725 ft | 522 kts | 141° |
| 2026-05-07 16:10 | -34.55836 | -59.51505 | 34724 ft | 531 kts | 141° |
| 2026-05-07 16:11 | -34.60886 | -59.47131 | 34715 ft | 542 kts | 142° |
| 2026-05-07 16:11 | -34.67103 | -59.41749 | 34711 ft | 555 kts | 142° |
| 2026-05-07 16:12 | -34.73419 | -59.36273 | 34712 ft | 559 kts | 142° |
| 2026-05-07 16:12 | -34.79745 | -59.30766 | 34699 ft | 559 kts | 141° |
| 2026-05-07 16:13 | -34.86055 | -59.25264 | 34705 ft | 559 kts | 141° |
| 2026-05-07 16:13 | -34.92366 | -59.19755 | 34702 ft | 559 kts | 141° |
| 2026-05-07 16:14 | -34.98696 | -59.14219 | 34684 ft | 559 kts | 141° |
| 2026-05-07 16:14 | -35.05032 | -59.08656 | 34681 ft | 559 kts | 141° |
| 2026-05-07 16:15 | -35.11303 | -59.03141 | 34670 ft | 559 kts | 141° |
| 2026-05-07 16:15 | -35.17626 | -58.97574 | 34667 ft | 559 kts | 141° |
| 2026-05-07 16:16 | -35.23939 | -58.92002 | 34653 ft | 560 kts | 141° |
| 2026-05-07 16:16 | -35.30253 | -58.86419 | 34652 ft | 560 kts | 141° |
| 2026-05-07 16:17 | -35.36589 | -58.80807 | 34639 ft | 561 kts | 141° |
| 2026-05-07 16:17 | -35.42873 | -58.75235 | 34639 ft | 562 kts | 141° |
| 2026-05-07 16:18 | -35.49224 | -58.69588 | 34630 ft | 562 kts | 141° |
| 2026-05-07 16:18 | -35.55572 | -58.63935 | 34640 ft | 563 kts | 141° |
| 2026-05-07 16:19 | -35.61886 | -58.58295 | 34630 ft | 563 kts | 141° |
| 2026-05-07 16:19 | -35.68245 | -58.52603 | 34634 ft | 564 kts | 141° |
| 2026-05-07 16:20 | -35.74818 | -58.47283 | 34619 ft | 567 kts | 153° |
| 2026-05-07 16:20 | -35.82209 | -58.44141 | 34623 ft | 566 kts | 167° |
| 2026-05-07 16:21 | -35.89846 | -58.41651 | 34616 ft | 567 kts | 167° |
| 2026-05-07 16:21 | -35.97480 | -58.39156 | 34624 ft | 567 kts | 167° |
| 2026-05-07 16:22 | -36.05096 | -58.36671 | 34630 ft | 566 kts | 167° |
| 2026-05-07 16:22 | -36.12724 | -58.34160 | 34642 ft | 566 kts | 166° |
| 2026-05-07 16:23 | -36.20284 | -58.31669 | 34642 ft | 565 kts | 166° |
| 2026-05-07 16:23 | -36.27883 | -58.29158 | 34650 ft | 564 kts | 166° |
| 2026-05-07 16:24 | -36.35463 | -58.26641 | 34593 ft | 564 kts | 166° |
| 2026-05-07 16:24 | -36.39291 | -58.25372 | 33667 ft | 572 kts | 166° |
| 2026-05-07 16:24 | -36.43114 | -58.24107 | 32835 ft | 562 kts | 167° |
| 2026-05-07 16:24 | -36.46891 | -58.22854 | 31991 ft | 560 kts | 167° |
| 2026-05-07 16:25 | -36.50598 | -58.21620 | 31834 ft | 544 kts | 167° |
| 2026-05-07 16:25 | -36.54171 | -58.20424 | 31441 ft | 524 kts | 168° |
| 2026-05-07 16:25 | -36.57690 | -58.19247 | 30723 ft | 512 kts | 168° |
| 2026-05-07 16:25 | -36.61099 | -58.18110 | 29959 ft | 503 kts | 169° |
| 2026-05-07 16:26 | -36.64450 | -58.16995 | 29140 ft | 494 kts | 169° |
| 2026-05-07 16:26 | -36.67733 | -58.15900 | 28315 ft | 485 kts | 169° |
| 2026-05-07 16:26 | -36.70953 | -58.14823 | 27728 ft | 470 kts | 169° |
| 2026-05-07 16:26 | -36.74081 | -58.13774 | 27228 ft | 456 kts | 170° |
| 2026-05-07 16:27 | -36.77104 | -58.12763 | 26728 ft | 448 kts | 170° |
| 2026-05-07 16:27 | -36.80115 | -58.11765 | 26201 ft | 447 kts | 170° |
| 2026-05-07 16:27 | -36.83130 | -58.10763 | 25674 ft | 447 kts | 171° |
| 2026-05-07 16:27 | -36.86084 | -58.09776 | 25137 ft | 446 kts | 171° |
| 2026-05-07 16:28 | -36.89128 | -58.08754 | 24577 ft | 446 kts | 171° |
| 2026-05-07 16:28 | -36.92079 | -58.07763 | 24028 ft | 446 kts | 171° |
| 2026-05-07 16:28 | -36.95187 | -58.06720 | 23436 ft | 447 kts | 171° |
| 2026-05-07 16:28 | -36.98180 | -58.05712 | 22937 ft | 443 kts | 171° |
| 2026-05-07 16:29 | -37.01147 | -58.04713 | 22509 ft | 438 kts | 171° |
| 2026-05-07 16:29 | -37.04056 | -58.03728 | 21845 ft | 431 kts | 170° |
| 2026-05-07 16:29 | -37.06827 | -58.02412 | 21244 ft | 432 kts | 158° |
| 2026-05-07 16:29 | -37.09404 | -58.00478 | 20771 ft | 432 kts | 150° |
| 2026-05-07 16:30 | -37.11919 | -57.98430 | 20390 ft | 427 kts | 150° |
| 2026-05-07 16:30 | -37.14403 | -57.96411 | 19977 ft | 424 kts | 151° |
| 2026-05-07 16:30 | -37.16864 | -57.94406 | 19591 ft | 420 kts | 151° |
| 2026-05-07 16:30 | -37.19304 | -57.92417 | 19018 ft | 414 kts | 151° |
| 2026-05-07 16:31 | -37.21693 | -57.90463 | 18411 ft | 406 kts | 151° |
| 2026-05-07 16:31 | -37.24021 | -57.88547 | 17967 ft | 394 kts | 151° |
| 2026-05-07 16:31 | -37.26288 | -57.86674 | 17499 ft | 382 kts | 151° |
| 2026-05-07 16:31 | -37.28477 | -57.84870 | 17055 ft | 370 kts | 150° |
| 2026-05-07 16:32 | -37.30602 | -57.83124 | 16657 ft | 359 kts | 150° |
| 2026-05-07 16:32 | -37.32663 | -57.81437 | 16259 ft | 353 kts | 150° |
| 2026-05-07 16:32 | -37.34725 | -57.79752 | 15876 ft | 354 kts | 150° |
| 2026-05-07 16:32 | -37.36791 | -57.78062 | 15488 ft | 354 kts | 149° |
| 2026-05-07 16:33 | -37.38829 | -57.76393 | 15102 ft | 354 kts | 149° |
| 2026-05-07 16:33 | -37.40896 | -57.74692 | 14720 ft | 355 kts | 148° |
| 2026-05-07 16:33 | -37.42960 | -57.72987 | 14329 ft | 355 kts | 148° |
| 2026-05-07 16:33 | -37.45028 | -57.71280 | 13927 ft | 355 kts | 148° |
| 2026-05-07 16:34 | -37.47097 | -57.69574 | 13530 ft | 355 kts | 148° |
| 2026-05-07 16:34 | -37.49161 | -57.67871 | 13125 ft | 355 kts | 147° |
| 2026-05-07 16:34 | -37.51217 | -57.66170 | 12722 ft | 354 kts | 147° |
| 2026-05-07 16:34 | -37.53286 | -57.64477 | 12321 ft | 352 kts | 148° |
| 2026-05-07 16:35 | -37.55323 | -57.62868 | 11928 ft | 350 kts | 149° |
| 2026-05-07 16:35 | -37.57404 | -57.61257 | 11527 ft | 349 kts | 149° |
| 2026-05-07 16:35 | -37.59457 | -57.59671 | 11126 ft | 347 kts | 149° |
| 2026-05-07 16:35 | -37.61507 | -57.58084 | 10775 ft | 344 kts | 149° |
| 2026-05-07 16:36 | -37.63551 | -57.56493 | 10386 ft | 342 kts | 148° |
| 2026-05-07 16:36 | -37.65572 | -57.54914 | 9968 ft | 342 kts | 148° |
| 2026-05-07 16:36 | -37.67579 | -57.53348 | 9692 ft | 336 kts | 148° |
| 2026-05-07 16:36 | -37.69564 | -57.51795 | 9382 ft | 331 kts | 148° |
| 2026-05-07 16:37 | -37.71464 | -57.50306 | 9243 ft | 321 kts | 147° |
| 2026-05-07 16:37 | -37.73358 | -57.48819 | 8957 ft | 315 kts | 147° |
| 2026-05-07 16:37 | -37.75205 | -57.47366 | 8624 ft | 312 kts | 147° |
| 2026-05-07 16:37 | -37.77039 | -57.45922 | 8265 ft | 309 kts | 147° |
| 2026-05-07 16:38 | -37.78860 | -57.44488 | 7891 ft | 305 kts | 147° |
| 2026-05-07 16:38 | -37.80647 | -57.43079 | 7232 ft | 301 kts | 146° |
| 2026-05-07 16:38 | -37.82411 | -57.41688 | 6645 ft | 297 kts | 146° |
| 2026-05-07 16:38 | -37.84141 | -57.40322 | 6109 ft | 290 kts | 146° |
| 2026-05-07 16:39 | -37.85832 | -57.38990 | 5619 ft | 280 kts | 146° |
| 2026-05-07 16:39 | -37.87457 | -57.37709 | 5169 ft | 270 kts | 146° |
| 2026-05-07 16:39 | -37.89020 | -57.36477 | 4776 ft | 261 kts | 146° |
| 2026-05-07 16:39 | -37.90543 | -57.35276 | 4367 ft | 256 kts | 146° |
| 2026-05-07 16:40 | -37.92089 | -57.34151 | 3955 ft | 259 kts | 156° |
| 2026-05-07 16:40 | -37.93849 | -57.33656 | 3558 ft | 261 kts | 178° |
| 2026-05-07 16:40 | -37.95596 | -57.33982 | 3475 ft | 248 kts | 198° |
| 2026-05-07 16:40 | -37.97094 | -57.34956 | 3373 ft | 239 kts | 214° |
| 2026-05-07 16:41 | -37.98437 | -57.36127 | 3269 ft | 230 kts | 214° |
| 2026-05-07 16:41 | -37.99729 | -57.37252 | 3165 ft | 221 kts | 214° |
| 2026-05-07 16:41 | -38.00921 | -57.38337 | 3085 ft | 206 kts | 222° |
| 2026-05-07 16:41 | -38.01591 | -57.39829 | 2961 ft | 189 kts | 262° |
| 2026-05-07 16:42 | -38.01464 | -57.41381 | 2757 ft | 171 kts | 297° |
| 2026-05-07 16:42 | -38.00874 | -57.42608 | 2528 ft | 158 kts | 308° |
| 2026-05-07 16:42 | -38.00291 | -57.43763 | 2322 ft | 152 kts | 307° |
| 2026-05-07 16:42 | -37.99728 | -57.44882 | 2124 ft | 150 kts | 308° |
| 2026-05-07 16:43 | -37.99166 | -57.45991 | 1925 ft | 149 kts | 308° |
| 2026-05-07 16:43 | -37.98608 | -57.47088 | 1754 ft | 149 kts | 307° |
| 2026-05-07 16:43 | -37.98045 | -57.48196 | 1555 ft | 149 kts | 309° |
| 2026-05-07 16:43 | -37.97491 | -57.49294 | 1348 ft | 148 kts | 308° |
| 2026-05-07 16:44 | -37.96934 | -57.50395 | 1160 ft | 149 kts | 310° |
| 2026-05-07 16:44 | -37.96377 | -57.51496 | 961 ft | 148 kts | 308° |
| 2026-05-07 16:44 | -37.95807 | -57.52618 | 779 ft | 152 kts | 308° |
| 2026-05-07 16:44 | -37.95246 | -57.53717 | 675 ft | 148 kts | 304° |
| 2026-05-07 16:45 | -37.94673 | -57.54770 | 489 ft | 143 kts | 301° |
| 2026-05-07 16:45 | -37.94164 | -57.55816 | 226 ft | 138 kts | 300° |
| 2026-05-07 16:45 | -37.93677 | -57.56816 | 49 ft | 122 kts | 301° |
| 2026-05-07 16:45 | -37.93351 | -57.57477 | 49 ft | 66 kts | 302° |
| 2026-05-07 16:46 | -37.93154 | -57.57861 | 53 ft | 29 kts | 302° |
| 2026-05-07 16:46 | -37.93201 | -57.57999 | 54 ft | 19 kts | 197° |
| 2026-05-07 16:46 | -37.93308 | -57.58024 | 54 ft | 12 kts | 181° |
| 2026-05-07 16:46 | -37.93380 | -57.58024 | 54 ft | 6 kts | 225° |
| 2026-05-07 16:47 | -37.93373 | -57.58037 | 52 ft | 1 kts | 314° |
| 2026-05-07 16:47 | -37.93345 | -57.58062 | 54 ft | 5 kts | 332° |
| 2026-05-07 16:47 | -37.93331 | -57.58071 | 54 ft | 0 kts | 333° |